createdAt,value
2018-10-11T00:01:07.580Z,14.57
2018-10-11T00:03:34.997Z,15.37
2018-10-11T00:06:02.632Z,15.90
2018-10-11T00:08:30.167Z,14.83
2018-10-11T00:10:57.697Z,14.77
2018-10-11T00:13:25.156Z,13.47
2018-10-11T00:15:52.562Z,14.57
2018-10-11T00:18:20.117Z,16.13
2018-10-11T00:20:47.670Z,13.30
2018-10-11T00:23:15.213Z,15.20
2018-10-11T00:27:07.289Z,17.00
2018-10-11T00:29:34.870Z,15.67
2018-10-11T00:32:02.400Z,15.97
2018-10-11T00:34:29.945Z,14.83
2018-10-11T00:36:57.483Z,15.93
2018-10-11T00:39:24.915Z,14.80
2018-10-11T00:41:52.371Z,16.90
2018-10-11T00:44:21.008Z,15.47
2018-10-11T00:46:48.620Z,15.23
2018-10-11T00:49:16.128Z,15.10
2018-10-11T00:51:43.671Z,15.73
2018-10-11T00:54:11.213Z,15.80
2018-10-11T00:56:38.859Z,16.90
2018-10-11T00:59:06.563Z,14.60
2018-10-11T01:01:34.156Z,15.60
2018-10-11T01:04:05.634Z,19.17
2018-10-11T01:06:33.341Z,16.20
2018-10-11T01:09:00.868Z,16.23
2018-10-11T01:11:28.769Z,16.87
2018-10-11T01:13:56.948Z,15.93
2018-10-11T01:16:26.176Z,16.80
2018-10-11T01:18:54.039Z,14.90
2018-10-11T01:21:21.674Z,16.60
2018-10-11T01:23:49.315Z,16.13
2018-10-11T01:26:16.772Z,15.60
2018-10-11T01:28:44.154Z,17.60
2018-10-11T01:31:23.687Z,15.60
2018-10-11T01:33:51.945Z,15.97
2018-10-11T01:36:19.908Z,15.97
2018-10-11T01:38:49.302Z,17.10
2018-10-11T01:41:16.681Z,17.57
2018-10-11T01:43:44.171Z,18.57
2018-10-11T01:46:12.282Z,16.27
2018-10-11T01:48:39.924Z,16.30
2018-10-11T01:51:07.585Z,16.23
2018-10-11T01:53:35.171Z,16.27
2018-10-11T01:56:03.038Z,14.40
2018-10-11T01:58:30.523Z,15.60
2018-10-11T02:00:58.235Z,16.00
2018-10-11T02:03:25.774Z,15.50
2018-10-11T02:05:53.179Z,16.37
2018-10-11T02:08:20.804Z,16.93
2018-10-11T02:10:48.471Z,16.73
2018-10-11T02:13:16.255Z,15.77
2018-10-11T02:15:44.090Z,16.63
2018-10-11T02:18:11.682Z,15.33
2018-10-11T02:20:39.258Z,16.53
2018-10-11T02:23:06.872Z,17.20
2018-10-11T02:25:34.496Z,15.90
2018-10-11T02:28:02.144Z,16.17
2018-10-11T02:30:30.712Z,18.60
2018-10-11T02:32:58.235Z,17.90
2018-10-11T02:35:25.755Z,17.07
2018-10-11T02:37:53.273Z,16.40
2018-10-11T02:40:20.878Z,18.60
2018-10-11T02:42:48.269Z,17.37
2018-10-11T02:45:15.811Z,18.07
2018-10-11T02:47:43.238Z,15.83
2018-10-11T02:50:10.768Z,17.70
2018-10-11T02:52:38.546Z,17.00
2018-10-11T02:55:06.036Z,17.13
2018-10-11T02:57:44.992Z,16.53
2018-10-11T03:00:12.551Z,16.20
2018-10-11T03:02:40.111Z,16.87
2018-10-11T03:05:14.711Z,17.23
2018-10-11T03:07:42.872Z,17.90
2018-10-11T03:10:10.296Z,16.33
2018-10-11T03:12:37.798Z,17.27
2018-10-11T03:15:05.366Z,16.83
2018-10-11T03:17:32.915Z,18.03
2018-10-11T03:20:00.488Z,16.67
2018-10-11T03:22:28.060Z,16.47
2018-10-11T03:24:55.590Z,19.27
2018-10-11T03:27:23.163Z,17.33
2018-10-11T03:29:50.668Z,16.63
2018-10-11T03:32:18.180Z,18.43
2018-10-11T03:34:45.591Z,19.47
2018-10-11T03:37:14.229Z,18.53
2018-10-11T03:39:41.672Z,20.13
2018-10-11T03:42:09.131Z,17.40
2018-10-11T03:44:36.626Z,18.50
2018-10-11T03:47:04.238Z,17.87
2018-10-11T03:49:31.838Z,18.47
2018-10-11T03:51:59.384Z,19.73
2018-10-11T03:54:26.985Z,18.80
2018-10-11T03:56:54.581Z,18.90
2018-10-11T03:59:22.222Z,19.20
2018-10-11T04:01:49.819Z,19.40
2018-10-11T04:04:17.352Z,19.03
2018-10-11T04:06:44.763Z,18.30
2018-10-11T04:09:12.242Z,18.40
2018-10-11T04:11:39.685Z,17.87
2018-10-11T04:14:07.151Z,18.17
2018-10-11T04:16:34.712Z,18.10
2018-10-11T04:19:02.289Z,18.47
2018-10-11T04:21:29.954Z,19.50
2018-10-11T04:23:57.542Z,19.20
2018-10-11T04:26:25.011Z,19.77
2018-10-11T04:28:52.537Z,18.60
2018-10-11T04:31:20.041Z,18.90
2018-10-11T04:33:47.604Z,20.30
2018-10-11T04:36:15.167Z,19.90
2018-10-11T04:38:42.637Z,19.80
2018-10-11T04:41:10.060Z,20.80
2018-10-11T04:43:37.603Z,22.10
2018-10-11T04:46:05.174Z,22.43
2018-10-11T04:48:32.798Z,21.20
2018-10-11T04:51:00.326Z,19.20
2018-10-11T04:53:27.872Z,22.10
2018-10-11T04:55:55.436Z,22.57
2018-10-11T04:58:22.987Z,18.90
2018-10-11T05:00:51.361Z,19.03
2018-10-11T05:03:18.824Z,19.63
2018-10-11T05:05:46.407Z,18.60
2018-10-11T05:08:13.912Z,20.47
2018-10-11T05:10:41.963Z,19.80
2018-10-11T05:13:09.584Z,20.43
2018-10-11T05:15:37.338Z,19.93
2018-10-11T05:18:06.331Z,19.50
2018-10-11T05:20:33.853Z,18.90
2018-10-11T05:23:01.288Z,21.57
2018-10-11T05:25:28.822Z,21.60
2018-10-11T05:27:56.431Z,20.77
2018-10-11T05:30:24.060Z,20.90
2018-10-11T05:32:51.899Z,20.30
2018-10-11T05:35:19.405Z,21.30
2018-10-11T05:37:46.961Z,21.20
2018-10-11T05:40:14.429Z,19.20
2018-10-11T05:42:42.099Z,20.60
2018-10-11T05:45:16.311Z,21.83
2018-10-11T05:47:44.024Z,22.20
2018-10-11T05:50:12.179Z,20.70
2018-10-11T05:52:40.175Z,20.50
2018-10-11T05:55:07.835Z,23.20
2018-10-11T05:57:35.472Z,21.97
2018-10-11T06:00:03.198Z,21.10
2018-10-11T06:02:30.752Z,22.50
2018-10-11T06:04:58.332Z,24.10
2018-10-11T06:07:25.997Z,22.07
2018-10-11T06:09:53.605Z,22.07
2018-10-11T06:12:21.303Z,23.90
2018-10-11T06:14:48.974Z,23.37
2018-10-11T06:17:16.510Z,21.37
2018-10-11T06:19:44.079Z,21.13
2018-10-11T06:22:11.633Z,20.87
2018-10-11T06:24:39.275Z,21.37
2018-10-11T06:27:07.569Z,23.07
2018-10-11T06:29:35.174Z,25.00
2018-10-11T06:32:02.772Z,24.13
2018-10-11T06:34:30.394Z,23.83
2018-10-11T06:36:59.204Z,23.27
2018-10-11T06:39:26.702Z,24.10
2018-10-11T06:41:54.375Z,22.60
2018-10-11T06:44:22.036Z,21.63
2018-10-11T06:46:49.711Z,22.87
2018-10-11T06:50:41.808Z,24.40
2018-10-11T06:53:09.391Z,24.83
2018-10-11T06:55:37.007Z,24.13
2018-10-11T06:58:04.607Z,23.93
2018-10-11T07:00:32.180Z,23.43
2018-10-11T07:02:59.718Z,22.23
2018-10-11T07:05:27.209Z,23.43
2018-10-11T07:07:54.765Z,21.60
2018-10-11T07:10:23.150Z,21.23
2018-10-11T07:12:50.699Z,22.37
2018-10-11T07:15:18.210Z,22.00
2018-10-11T07:17:45.772Z,21.90
2018-10-11T07:20:13.234Z,21.50
2018-10-11T07:22:40.754Z,24.00
2018-10-11T07:25:08.397Z,23.13
2018-10-11T07:27:35.992Z,23.57
2018-10-11T07:30:03.673Z,21.80
2018-10-11T07:32:31.213Z,23.00
2018-10-11T07:34:58.905Z,20.90
2018-10-11T07:37:26.507Z,21.20
2018-10-11T07:39:54.073Z,20.40
2018-10-11T07:42:21.600Z,21.27
2018-10-11T07:44:49.084Z,21.90
2018-10-11T07:47:16.641Z,23.60
2018-10-11T07:49:44.105Z,22.60
2018-10-11T07:52:11.533Z,21.57
2018-10-11T07:54:39.045Z,23.07
2018-10-11T07:57:06.673Z,23.23
2018-10-11T07:59:34.158Z,22.97
2018-10-11T08:02:02.334Z,21.93
2018-10-11T08:04:29.833Z,21.77
2018-10-11T08:06:57.349Z,23.87
2018-10-11T08:09:24.916Z,22.80
2018-10-11T08:11:52.672Z,23.30
2018-10-11T08:14:20.171Z,21.43
2018-10-11T08:16:48.122Z,21.90
2018-10-11T08:19:15.725Z,21.80
2018-10-11T08:21:43.320Z,22.17
2018-10-11T08:24:11.917Z,21.43
2018-10-11T08:26:39.669Z,23.80
2018-10-11T08:29:07.237Z,20.73
2018-10-11T08:31:34.866Z,20.90
2018-10-11T08:34:02.342Z,21.37
2018-10-11T08:36:30.224Z,21.53
2018-10-11T08:38:57.755Z,21.83
2018-10-11T08:41:25.317Z,19.97
2018-10-11T08:43:52.796Z,20.97
2018-10-11T08:46:20.297Z,21.43
2018-10-11T08:48:47.872Z,22.73
2018-10-11T08:51:15.442Z,19.50
2018-10-11T08:53:43.020Z,20.17
2018-10-11T08:56:10.478Z,20.70
2018-10-11T08:58:38.044Z,21.60
2018-10-11T09:01:05.558Z,19.93
2018-10-11T09:03:33.311Z,20.87
2018-10-11T09:06:00.706Z,22.57
2018-10-11T09:08:28.319Z,22.60
2018-10-11T09:10:55.881Z,21.97
2018-10-11T09:13:23.320Z,20.60
2018-10-11T09:15:50.896Z,21.87
2018-10-11T09:18:18.804Z,21.57
2018-10-11T09:20:46.365Z,21.47
2018-10-11T09:23:13.859Z,21.03
2018-10-11T09:25:41.474Z,21.87
2018-10-11T09:28:08.899Z,22.67
2018-10-11T09:30:36.960Z,22.10
2018-10-11T09:33:04.624Z,23.30
2018-10-11T09:35:32.159Z,17.53
2018-10-11T09:37:59.683Z,23.67
2018-10-11T09:40:27.152Z,22.10
2018-10-11T09:42:54.693Z,23.67
2018-10-11T09:45:22.165Z,22.10
2018-10-11T09:47:49.832Z,20.53
2018-10-11T09:50:17.378Z,21.80
2018-10-11T09:52:44.861Z,17.70
2018-10-11T09:55:12.371Z,19.00
2018-10-11T09:57:40.010Z,20.40
2018-10-11T10:00:15.574Z,22.57
2018-10-11T10:02:43.597Z,23.27
2018-10-11T10:05:11.180Z,23.10
2018-10-11T10:07:38.837Z,19.93
2018-10-11T10:10:06.606Z,20.30
2018-10-11T10:12:34.204Z,22.70
2018-10-11T10:15:01.699Z,21.50
2018-10-11T10:17:29.265Z,22.80
2018-10-11T10:19:56.732Z,22.20
2018-10-11T10:22:24.253Z,20.33
2018-10-11T10:24:51.889Z,21.60
2018-10-11T10:27:19.568Z,22.10
2018-10-11T10:29:47.009Z,19.87
2018-10-11T10:32:14.551Z,23.73
2018-10-11T10:34:42.126Z,20.20
2018-10-11T10:37:09.723Z,21.43
2018-10-11T10:39:37.384Z,23.03
2018-10-11T10:42:04.946Z,21.23
2018-10-11T10:44:32.468Z,19.37
2018-10-11T10:46:59.979Z,21.77
2018-10-11T10:49:27.550Z,18.03
2018-10-11T10:53:19.641Z,21.43
2018-10-11T10:55:47.185Z,20.90
2018-10-11T10:58:14.801Z,20.27
2018-10-11T11:00:42.423Z,16.80
2018-10-11T11:03:09.937Z,17.20
2018-10-11T11:05:37.433Z,17.10
2018-10-11T11:08:04.973Z,17.33
2018-10-11T11:10:32.448Z,18.90
2018-10-11T11:12:59.985Z,20.43
2018-10-11T11:15:27.482Z,19.40
2018-10-11T11:17:55.043Z,16.70
2018-10-11T11:20:22.617Z,18.50
2018-10-11T11:22:50.220Z,17.97
2018-10-11T11:25:17.894Z,23.47
2018-10-11T11:27:45.477Z,17.53
2018-10-11T11:30:13.015Z,21.43
2018-10-11T11:32:40.536Z,21.30
2018-10-11T11:35:08.094Z,22.53
2018-10-11T11:37:35.612Z,20.00
2018-10-11T11:40:03.273Z,20.60
2018-10-11T11:42:30.796Z,16.33
2018-10-11T11:44:58.402Z,18.83
2018-10-11T11:47:25.927Z,16.50
2018-10-11T11:49:53.513Z,22.33
2018-10-11T11:52:21.655Z,16.83
2018-10-11T11:54:49.323Z,20.13
2018-10-11T11:57:16.903Z,19.70
2018-10-11T11:59:44.471Z,22.27
2018-10-11T12:02:12.056Z,20.47
2018-10-11T12:04:39.591Z,18.83
2018-10-11T12:07:07.098Z,18.47
2018-10-11T12:09:34.598Z,16.07
2018-10-11T12:12:02.178Z,17.87
2018-10-11T12:14:29.878Z,15.40
2018-10-11T12:16:57.370Z,17.17
2018-10-11T12:19:24.902Z,17.67
2018-10-11T12:21:52.425Z,20.23
2018-10-11T12:24:19.934Z,16.67
2018-10-11T12:26:47.482Z,17.67
2018-10-11T12:29:15.040Z,14.00
2018-10-11T12:31:42.572Z,15.37
2018-10-11T12:34:09.968Z,20.53
2018-10-11T12:36:37.658Z,19.60
2018-10-11T12:39:07.042Z,18.50
2018-10-11T12:41:34.580Z,17.10
2018-10-11T12:44:02.144Z,17.47
2018-10-11T12:46:31.601Z,17.20
2018-10-11T12:48:57.244Z,20.97
2018-10-11T12:51:24.641Z,17.40
2018-10-11T12:53:55.789Z,19.90
2018-10-11T12:56:23.990Z,22.57
2018-10-11T12:58:51.513Z,22.10
2018-10-11T13:01:21.126Z,16.60
2018-10-11T13:03:46.375Z,15.77
2018-10-11T13:06:13.876Z,15.83
2018-10-11T13:08:41.516Z,20.90
2018-10-11T13:11:08.983Z,19.83
2018-10-11T13:13:36.573Z,17.70
2018-10-11T13:16:05.093Z,19.87
2018-10-11T13:18:31.853Z,22.00
2018-10-11T13:20:59.436Z,19.37
2018-10-11T13:23:27.015Z,20.83
2018-10-11T13:25:54.571Z,20.93
2018-10-11T13:28:22.084Z,21.33
2018-10-11T13:30:49.661Z,19.77
2018-10-11T13:33:17.162Z,20.63
2018-10-11T13:35:44.798Z,22.43
2018-10-11T13:38:12.331Z,20.10
2018-10-11T13:40:40.005Z,21.17
2018-10-11T13:43:07.548Z,19.43
2018-10-11T13:45:35.093Z,18.20
2018-10-11T13:48:02.717Z,19.40
2018-10-11T13:50:30.261Z,19.97
2018-10-11T13:53:01.503Z,17.73
2018-10-11T13:55:28.947Z,20.70
2018-10-11T13:57:56.549Z,17.27
2018-10-11T14:00:24.077Z,20.90
2018-10-11T14:02:51.629Z,18.80
2018-10-11T14:05:19.181Z,22.10
2018-10-11T14:07:46.765Z,21.93
2018-10-11T14:10:14.362Z,22.40
2018-10-11T14:12:41.951Z,22.13
2018-10-11T14:15:09.652Z,18.20
2018-10-11T14:17:37.235Z,20.13
2018-10-11T14:20:04.827Z,15.93
2018-10-11T14:22:32.322Z,16.20
2018-10-11T14:24:59.886Z,16.93
2018-10-11T14:27:27.619Z,19.37
2018-10-11T14:29:55.249Z,18.23
2018-10-11T14:32:22.849Z,19.37
2018-10-11T14:34:50.634Z,16.17
2018-10-11T14:37:18.140Z,20.40
2018-10-11T14:39:45.700Z,18.23
2018-10-11T14:42:14.902Z,21.00
2018-10-11T14:44:42.332Z,21.80
2018-10-11T14:47:09.953Z,19.70
2018-10-11T14:49:38.628Z,20.67
2018-10-11T14:52:08.810Z,18.63
2018-10-11T14:54:36.316Z,21.20
2018-10-11T14:57:05.203Z,22.27
2018-10-11T14:59:32.817Z,20.33
2018-10-11T15:02:00.640Z,18.90
2018-10-11T15:04:29.100Z,20.07
2018-10-11T15:06:56.598Z,19.60
2018-10-11T15:09:24.052Z,19.10
2018-10-11T15:11:51.564Z,21.57
2018-10-11T15:14:19.163Z,19.20
2018-10-11T15:16:46.819Z,20.07
2018-10-11T15:19:14.393Z,21.17
2018-10-11T15:21:42.020Z,20.23
2018-10-11T15:24:11.233Z,19.03
2018-10-11T15:26:41.391Z,18.90
2018-10-11T15:29:11.775Z,21.33
2018-10-11T15:31:39.620Z,22.27
2018-10-11T15:34:07.256Z,21.37
2018-10-11T15:36:34.872Z,20.93
2018-10-11T15:39:02.629Z,21.87
2018-10-11T15:41:31.922Z,21.30
2018-10-11T15:43:59.547Z,21.20
2018-10-11T15:46:27.135Z,22.13
2018-10-11T15:48:54.718Z,20.30
2018-10-11T15:51:22.364Z,21.50
2018-10-11T15:53:49.869Z,19.37
2018-10-11T15:56:17.454Z,19.97
2018-10-11T15:58:45.242Z,20.77
2018-10-11T16:01:12.825Z,20.80
2018-10-11T16:03:40.402Z,20.93
2018-10-11T16:06:08.071Z,19.10
2018-10-11T16:08:35.677Z,21.77
2018-10-11T16:11:03.828Z,19.60
2018-10-11T16:13:31.579Z,21.83
2018-10-11T16:15:59.077Z,21.17
2018-10-11T16:18:26.557Z,21.87
2018-10-11T16:20:54.105Z,20.70
2018-10-11T16:23:21.776Z,21.70
2018-10-11T16:25:49.317Z,28.23
2018-10-11T16:28:17.003Z,21.60
2018-10-11T16:30:44.545Z,20.40
2018-10-11T16:33:12.333Z,20.60
2018-10-11T16:35:39.883Z,21.40
2018-10-11T16:38:07.562Z,19.03
2018-10-11T16:40:35.245Z,21.37
2018-10-11T16:43:02.883Z,19.83
2018-10-11T16:45:30.412Z,21.47
2018-10-11T16:47:58.482Z,22.33
2018-10-11T16:50:26.545Z,22.77
2018-10-11T16:52:56.716Z,20.20
2018-10-11T16:55:29.215Z,20.83
2018-10-11T16:57:57.377Z,20.30
2018-10-11T17:00:25.105Z,20.70
2018-10-11T17:02:52.645Z,21.33
2018-10-11T17:05:20.284Z,18.27
2018-10-11T17:07:48.084Z,20.30
2018-10-11T17:10:15.629Z,19.23
2018-10-11T17:12:43.507Z,17.40
2018-10-11T17:15:12.049Z,20.10
2018-10-11T17:17:39.716Z,18.70
2018-10-11T17:20:07.253Z,18.77
2018-10-11T17:22:35.749Z,18.87
2018-10-11T17:25:03.579Z,19.77
2018-10-11T17:27:32.940Z,20.07
2018-10-11T17:30:02.835Z,19.80
2018-10-11T17:32:31.008Z,18.80
2018-10-11T17:34:59.179Z,19.27
2018-10-11T17:37:26.769Z,18.93
2018-10-11T17:39:54.554Z,18.73
2018-10-11T17:42:22.133Z,21.23
2018-10-11T17:44:49.720Z,19.67
2018-10-11T17:47:17.358Z,18.73
2018-10-11T17:49:44.856Z,21.00
2018-10-11T17:52:12.453Z,20.90
2018-10-11T17:54:44.616Z,18.07
2018-10-11T17:57:14.546Z,17.77
2018-10-11T17:59:42.999Z,18.10
2018-10-11T18:02:10.812Z,17.20
2018-10-11T18:04:38.457Z,18.20
2018-10-11T18:07:06.211Z,19.07
2018-10-11T18:09:33.862Z,18.20
2018-10-11T18:12:01.625Z,19.87
2018-10-11T18:14:29.329Z,18.40
2018-10-11T18:16:56.965Z,18.73
2018-10-11T18:19:24.559Z,18.77
2018-10-11T18:21:53.260Z,19.90
2018-10-11T18:24:23.988Z,18.13
2018-10-11T18:26:51.667Z,18.43
2018-10-11T18:29:19.311Z,18.90
2018-10-11T18:31:46.819Z,18.23
2018-10-11T18:34:14.661Z,16.13
2018-10-11T18:38:06.709Z,18.63
2018-10-11T18:40:34.251Z,18.97
2018-10-11T18:43:01.721Z,19.43
2018-10-11T18:45:29.295Z,21.40
2018-10-11T18:47:56.872Z,20.33
2018-10-11T18:50:24.472Z,17.57
2018-10-11T18:52:51.896Z,18.50
2018-10-11T18:55:21.013Z,17.17
2018-10-11T18:57:48.639Z,17.80
2018-10-11T19:00:16.178Z,17.07
2018-10-11T19:02:43.638Z,19.70
2018-10-11T19:05:11.286Z,19.70
2018-10-11T19:07:40.085Z,18.13
2018-10-11T19:10:07.732Z,19.27
2018-10-11T19:12:35.373Z,18.83
2018-10-11T19:15:03.013Z,17.93
2018-10-11T19:17:32.936Z,18.70
2018-10-11T19:20:00.564Z,20.03
2018-10-11T19:22:32.336Z,19.90
2018-10-11T19:25:00.590Z,18.97
2018-10-11T19:27:28.729Z,19.17
2018-10-11T19:29:56.701Z,18.27
2018-10-11T19:32:25.006Z,17.27
2018-10-11T19:34:53.536Z,18.10
2018-10-11T19:37:21.392Z,18.23
2018-10-11T19:39:49.112Z,18.63
2018-10-11T19:42:18.060Z,18.43
2018-10-11T19:44:45.952Z,18.40
2018-10-11T19:47:13.562Z,18.73
2018-10-11T19:49:41.061Z,18.27
2018-10-11T19:52:08.635Z,17.30
2018-10-11T19:54:36.351Z,19.50
2018-10-11T19:57:04.181Z,18.17
2018-10-11T19:59:31.793Z,20.77
2018-10-11T20:01:59.536Z,18.50
2018-10-11T20:04:27.244Z,17.10
2018-10-11T20:06:54.837Z,17.83
2018-10-11T20:09:22.673Z,18.30
2018-10-11T20:11:50.471Z,17.73
2018-10-11T20:14:18.535Z,19.83
2018-10-11T20:16:47.716Z,21.17
2018-10-11T20:19:15.491Z,17.47
2018-10-11T20:21:43.060Z,19.00
2018-10-11T20:24:10.616Z,17.97
2018-10-11T20:26:38.104Z,19.97
2018-10-11T20:29:05.577Z,19.97
2018-10-11T20:31:33.439Z,19.37
2018-10-11T20:34:00.842Z,19.87
2018-10-11T20:36:28.425Z,20.10
2018-10-11T20:38:56.008Z,19.60
2018-10-11T20:41:23.633Z,20.13
2018-10-11T20:43:51.931Z,20.90
2018-10-11T20:46:19.489Z,21.23
2018-10-11T20:48:47.050Z,22.50
2018-10-11T20:51:15.327Z,20.80
2018-10-11T20:53:42.734Z,21.03
2018-10-11T20:56:11.451Z,18.90
2018-10-11T20:58:38.979Z,20.33
2018-10-11T21:01:07.444Z,21.43
2018-10-11T21:03:35.138Z,20.73
2018-10-11T21:06:03.397Z,20.50
2018-10-11T21:08:30.972Z,21.20
2018-10-11T21:10:58.492Z,21.37
2018-10-11T21:13:26.667Z,21.17
2018-10-11T21:15:54.274Z,21.87
2018-10-11T21:18:22.315Z,22.07
2018-10-11T21:20:49.931Z,21.30
2018-10-11T21:23:17.544Z,19.97
2018-10-11T21:25:45.120Z,23.30
2018-10-11T21:28:15.654Z,21.77
2018-10-11T21:30:43.199Z,20.57
2018-10-11T21:33:11.948Z,20.90
2018-10-11T21:35:39.878Z,20.07
2018-10-11T21:38:07.753Z,21.10
2018-10-11T21:40:35.731Z,19.97
2018-10-11T21:43:03.617Z,20.23
2018-10-11T21:45:32.512Z,19.67
2018-10-11T21:48:00.303Z,19.83
2018-10-11T21:50:28.040Z,20.93
2018-10-11T21:53:14.559Z,20.53
2018-10-11T21:55:42.184Z,19.70
2018-10-11T21:58:09.743Z,20.33
2018-10-11T22:00:43.044Z,20.63
2018-10-11T22:03:11.734Z,20.20
2018-10-11T22:05:39.663Z,20.43
2018-10-11T22:08:07.431Z,19.83
2018-10-11T22:10:34.876Z,21.00
2018-10-11T22:13:02.364Z,19.40
2018-10-11T22:15:29.763Z,19.23
2018-10-11T22:17:57.189Z,22.10
2018-10-11T22:20:24.765Z,20.00
2018-10-11T22:22:53.457Z,19.63
2018-10-11T22:25:21.050Z,19.47
2018-10-11T22:27:48.793Z,18.17
2018-10-11T22:30:16.365Z,18.97
2018-10-11T22:32:43.933Z,19.57
2018-10-11T22:35:11.481Z,18.80
2018-10-11T22:37:39.118Z,16.90
2018-10-11T22:40:06.719Z,17.17
2018-10-11T22:42:34.389Z,19.40
2018-10-11T22:45:02.141Z,18.07
2018-10-11T22:47:29.831Z,17.67
2018-10-11T22:49:57.871Z,17.77
2018-10-11T22:52:25.616Z,17.50
2018-10-11T22:54:53.295Z,18.60
2018-10-11T22:57:20.854Z,18.27
2018-10-11T22:59:48.403Z,19.97
2018-10-11T23:02:16.223Z,16.90
2018-10-11T23:04:43.825Z,17.83
2018-10-11T23:07:11.400Z,17.93
2018-10-11T23:09:47.745Z,20.97
2018-10-11T23:12:15.328Z,19.10
2018-10-11T23:16:08.089Z,18.30
2018-10-11T23:18:35.575Z,18.73
2018-10-11T23:21:04.318Z,19.63
2018-10-11T23:23:31.984Z,18.87
2018-10-11T23:25:59.524Z,18.07
2018-10-11T23:28:27.097Z,18.10
2018-10-11T23:30:54.618Z,19.37
2018-10-11T23:33:22.220Z,18.07
2018-10-11T23:35:49.751Z,21.40
2018-10-11T23:38:17.424Z,19.20
2018-10-11T23:40:44.974Z,18.70
2018-10-11T23:43:12.541Z,18.30
2018-10-11T23:45:40.051Z,18.87
2018-10-11T23:48:07.561Z,20.20
2018-10-11T23:50:35.165Z,17.67
2018-10-11T23:53:02.690Z,17.23
2018-10-11T23:55:31.560Z,17.23
2018-10-11T23:58:00.477Z,17.57
